createdAt,value
2023-03-21T00:02:40.335Z,20.00
2023-03-21T00:05:27.761Z,19.67
2023-03-21T00:08:15.616Z,19.90
2023-03-21T00:11:04.259Z,19.67
2023-03-21T00:13:53.350Z,21.63
2023-03-21T00:16:41.487Z,19.97
2023-03-21T00:19:29.085Z,21.57
2023-03-21T00:22:16.482Z,21.20
2023-03-21T00:25:03.922Z,20.90
2023-03-21T00:28:07.075Z,21.17
2023-03-21T00:31:01.604Z,21.47
2023-03-21T00:33:48.981Z,20.93
2023-03-21T00:36:36.365Z,21.63
2023-03-21T00:39:23.799Z,20.77
2023-03-21T00:42:11.170Z,22.37
2023-03-21T00:44:58.550Z,21.53
2023-03-21T00:47:46.124Z,21.33
2023-03-21T00:50:34.374Z,21.33
2023-03-21T00:53:21.810Z,21.70
2023-03-21T00:56:09.462Z,20.60
2023-03-21T00:58:56.826Z,21.73
2023-03-21T01:01:46.513Z,22.07
2023-03-21T01:04:34.644Z,21.03
2023-03-21T01:07:23.131Z,21.13
2023-03-21T01:10:11.645Z,21.37
2023-03-21T01:12:59.131Z,22.30
2023-03-21T01:15:47.848Z,21.73
2023-03-21T01:18:36.077Z,22.00
2023-03-21T01:21:23.516Z,21.53
2023-03-21T01:24:11.238Z,21.83
2023-03-21T01:26:58.571Z,21.07
2023-03-21T01:29:45.970Z,20.93
2023-03-21T01:32:33.379Z,21.83
2023-03-21T01:35:20.797Z,20.43
2023-03-21T01:38:09.700Z,20.47
2023-03-21T01:40:57.094Z,20.20
2023-03-21T01:43:44.448Z,20.50
2023-03-21T01:47:11.624Z,20.30
2023-03-21T01:50:01.950Z,20.17
2023-03-21T01:52:50.092Z,21.10
2023-03-21T01:55:38.349Z,21.80
2023-03-21T01:58:26.255Z,21.10
2023-03-21T02:01:15.793Z,21.20
2023-03-21T02:04:03.855Z,20.83
2023-03-21T02:07:11.555Z,21.87
2023-03-21T02:09:59.341Z,20.30
2023-03-21T02:12:46.819Z,21.57
2023-03-21T02:15:35.068Z,21.40
2023-03-21T02:18:34.562Z,21.23
2023-03-21T02:21:33.273Z,20.77
2023-03-21T02:24:32.645Z,20.33
2023-03-21T02:27:23.930Z,21.00
2023-03-21T02:30:14.996Z,21.33
2023-03-21T02:33:04.916Z,20.73
2023-03-21T02:35:58.658Z,21.47
2023-03-21T02:38:48.190Z,21.30
2023-03-21T02:41:40.138Z,21.00
2023-03-21T02:44:46.777Z,21.93
2023-03-21T02:47:35.177Z,21.60
2023-03-21T02:50:25.456Z,22.57
2023-03-21T02:53:14.774Z,23.20
2023-03-21T02:56:02.738Z,22.13
2023-03-21T02:58:50.146Z,22.43
2023-03-21T03:01:37.656Z,21.93
2023-03-21T03:04:29.534Z,22.53
2023-03-21T03:07:17.757Z,22.77
2023-03-21T03:10:14.126Z,22.60
2023-03-21T03:13:07.691Z,23.03
2023-03-21T03:15:57.863Z,23.77
2023-03-21T03:18:55.902Z,23.03
2023-03-21T03:22:03.805Z,22.70
2023-03-21T03:25:04.824Z,22.63
2023-03-21T03:27:57.282Z,24.13
2023-03-21T03:30:57.385Z,24.30
2023-03-21T03:33:54.353Z,23.90
2023-03-21T03:36:43.781Z,25.30
2023-03-21T03:39:36.430Z,26.70
2023-03-21T03:42:28.740Z,26.93
2023-03-21T03:45:17.024Z,25.57
2023-03-21T03:48:17.374Z,26.47
2023-03-21T03:51:07.619Z,25.63
2023-03-21T03:53:57.802Z,27.57
2023-03-21T03:56:45.504Z,27.07
2023-03-21T03:59:35.311Z,26.70
2023-03-21T04:02:22.695Z,26.67
2023-03-21T04:05:10.240Z,25.80
2023-03-21T04:07:58.084Z,26.47
2023-03-21T04:10:45.679Z,30.93
2023-03-21T04:13:34.159Z,35.93
2023-03-21T04:16:23.225Z,39.17
2023-03-21T04:19:10.676Z,36.10
2023-03-21T04:21:58.010Z,40.87
2023-03-21T04:24:45.374Z,37.07
2023-03-21T04:27:33.306Z,41.10
2023-03-21T04:30:20.666Z,45.07
2023-03-21T04:33:08.198Z,41.57
2023-03-21T04:35:56.198Z,42.87
2023-03-21T04:38:48.381Z,37.97
2023-03-21T04:41:37.285Z,40.07
2023-03-21T04:44:24.644Z,42.43
2023-03-21T04:47:13.210Z,43.47
2023-03-21T04:50:00.779Z,38.63
2023-03-21T04:52:48.745Z,46.13
2023-03-21T04:55:37.023Z,40.20
2023-03-21T04:58:24.475Z,44.00
2023-03-21T05:01:14.578Z,40.37
2023-03-21T05:04:03.053Z,35.30
2023-03-21T05:06:50.672Z,40.00
2023-03-21T05:09:38.187Z,40.70
2023-03-21T05:12:25.844Z,38.13
2023-03-21T05:15:13.296Z,33.37
2023-03-21T05:18:10.716Z,32.63
2023-03-21T05:20:58.092Z,32.50
2023-03-21T05:23:45.535Z,30.30
2023-03-21T05:26:32.919Z,32.20
2023-03-21T05:29:20.864Z,32.20
2023-03-21T05:32:08.272Z,30.43
2023-03-21T05:34:56.084Z,33.53
2023-03-21T05:37:43.497Z,31.93
2023-03-21T05:40:30.915Z,35.00
2023-03-21T05:43:18.471Z,30.77
2023-03-21T05:46:06.129Z,32.17
2023-03-21T05:48:53.650Z,30.93
2023-03-21T05:51:41.132Z,31.13
2023-03-21T05:54:28.609Z,32.73
2023-03-21T05:57:16.122Z,32.47
2023-03-21T06:00:03.654Z,31.37
2023-03-21T06:02:51.055Z,29.93
2023-03-21T06:05:38.657Z,32.33
2023-03-21T06:08:26.365Z,31.73
2023-03-21T06:11:20.570Z,32.37
2023-03-21T06:14:07.917Z,29.63
2023-03-21T06:16:55.324Z,31.33
2023-03-21T06:19:42.735Z,30.30
2023-03-21T06:22:30.206Z,31.33
2023-03-21T06:25:17.674Z,32.60
2023-03-21T06:28:05.233Z,31.63
2023-03-21T06:30:53.085Z,31.43
2023-03-21T06:33:40.569Z,31.13
2023-03-21T06:36:27.953Z,30.90
2023-03-21T06:39:16.048Z,30.00
2023-03-21T06:42:03.722Z,32.30
2023-03-21T06:44:51.063Z,31.90
2023-03-21T06:47:38.645Z,29.93
2023-03-21T06:50:26.065Z,41.65
2023-03-21T06:53:13.414Z,39.27
2023-03-21T06:56:00.857Z,37.50
2023-03-21T06:58:48.389Z,37.37
2023-03-21T07:01:36.116Z,48.03
2023-03-21T07:04:23.555Z,37.70
2023-03-21T07:07:10.933Z,31.83
2023-03-21T07:09:58.318Z,31.43
2023-03-21T07:12:45.749Z,33.23
2023-03-21T07:15:34.564Z,33.67
2023-03-21T07:18:22.026Z,34.63
2023-03-21T07:21:09.736Z,33.70
2023-03-21T07:23:57.100Z,32.93
2023-03-21T07:26:44.469Z,34.50
2023-03-21T07:29:31.898Z,32.73
2023-03-21T07:32:19.324Z,32.43
2023-03-21T07:35:07.705Z,33.47
2023-03-21T07:37:55.198Z,31.77
2023-03-21T07:40:42.580Z,31.90
2023-03-21T07:43:30.131Z,31.87
2023-03-21T07:46:17.581Z,31.67
2023-03-21T07:49:06.226Z,32.00
2023-03-21T07:51:53.575Z,31.40
2023-03-21T07:54:40.948Z,30.93
2023-03-21T07:57:28.338Z,30.33
2023-03-21T08:00:22.781Z,28.67
2023-03-21T08:03:10.486Z,29.07
2023-03-21T08:05:59.473Z,29.30
2023-03-21T08:08:47.019Z,28.73
2023-03-21T08:11:34.459Z,29.07
2023-03-21T08:14:21.864Z,29.03
2023-03-21T08:17:09.497Z,27.23
2023-03-21T08:19:57.454Z,28.60
2023-03-21T08:22:45.018Z,27.67
2023-03-21T08:25:33.127Z,28.47
2023-03-21T08:28:20.720Z,28.43
2023-03-21T08:31:08.951Z,30.30
2023-03-21T08:33:56.385Z,29.33
2023-03-21T08:36:43.782Z,28.17
2023-03-21T08:39:31.228Z,30.27
2023-03-21T08:42:18.696Z,27.90
2023-03-21T08:45:06.660Z,28.83
2023-03-21T08:47:54.601Z,26.47
2023-03-21T08:50:41.986Z,28.13
2023-03-21T08:53:29.431Z,28.03
2023-03-21T08:56:17.154Z,26.17
2023-03-21T08:59:04.626Z,29.37
2023-03-21T09:01:52.123Z,27.10
2023-03-21T09:04:40.418Z,29.00
2023-03-21T09:07:27.891Z,27.27
2023-03-21T09:10:21.804Z,28.70
2023-03-21T09:13:09.820Z,29.47
2023-03-21T09:16:01.852Z,29.03
2023-03-21T09:18:50.467Z,27.03
2023-03-21T09:21:38.996Z,28.87
2023-03-21T09:24:26.492Z,29.33
2023-03-21T09:27:15.728Z,30.07
2023-03-21T09:30:05.979Z,30.47
2023-03-21T09:32:55.433Z,29.40
2023-03-21T09:35:42.999Z,29.87
2023-03-21T09:38:30.503Z,29.80
2023-03-21T09:41:23.201Z,29.50
2023-03-21T09:44:29.331Z,29.87
2023-03-21T09:47:25.398Z,29.50
2023-03-21T09:50:20.590Z,29.47
2023-03-21T09:53:16.489Z,27.87
2023-03-21T09:56:05.510Z,29.00
2023-03-21T09:58:55.251Z,29.20
2023-03-21T10:01:45.423Z,28.27
2023-03-21T10:04:33.892Z,28.90
2023-03-21T10:07:22.267Z,26.97
2023-03-21T10:10:16.023Z,26.33
2023-03-21T10:13:03.806Z,27.30
2023-03-21T10:15:51.203Z,26.17
2023-03-21T10:18:38.779Z,25.53
2023-03-21T10:21:51.746Z,25.13
2023-03-21T10:24:35.324Z,24.60
2023-03-21T10:27:22.710Z,23.40
2023-03-21T10:30:19.374Z,23.10
2023-03-21T10:33:09.596Z,23.40
2023-03-21T10:35:59.890Z,25.20
2023-03-21T10:38:49.260Z,21.27
2023-03-21T10:41:38.251Z,21.63
2023-03-21T10:44:30.233Z,22.40
2023-03-21T10:47:21.937Z,21.53
2023-03-21T10:50:13.502Z,20.27
2023-03-21T10:53:01.785Z,21.13
2023-03-21T10:55:51.333Z,20.80
2023-03-21T10:58:42.690Z,21.00
2023-03-21T11:01:34.788Z,23.17
2023-03-21T11:04:24.144Z,23.17
2023-03-21T11:07:14.243Z,24.50
2023-03-21T11:10:17.148Z,24.03
2023-03-21T11:13:09.482Z,23.80
2023-03-21T11:15:58.744Z,24.90
2023-03-21T11:18:50.209Z,23.50
2023-03-21T11:21:38.137Z,25.57
2023-03-21T11:24:29.242Z,22.53
2023-03-21T11:27:16.693Z,23.80
2023-03-21T11:30:05.262Z,22.53
2023-03-21T11:33:11.316Z,21.43
2023-03-21T11:36:21.918Z,20.83
2023-03-21T11:39:12.092Z,21.33
2023-03-21T11:41:59.531Z,20.40
2023-03-21T11:44:47.260Z,21.93
2023-03-21T11:47:34.716Z,21.47
2023-03-21T11:50:22.423Z,22.10
2023-03-21T11:53:27.949Z,22.03
2023-03-21T11:56:15.476Z,21.20
2023-03-21T11:59:08.111Z,22.07
2023-03-21T12:02:06.189Z,20.00
2023-03-21T12:05:00.290Z,19.37
2023-03-21T12:08:03.674Z,19.70
2023-03-21T12:11:00.752Z,20.80
2023-03-21T12:14:02.190Z,23.17
2023-03-21T12:16:59.387Z,21.80
2023-03-21T12:20:01.909Z,19.63
2023-03-21T12:23:08.299Z,19.93
2023-03-21T12:26:07.937Z,20.47
2023-03-21T12:29:07.726Z,18.27
2023-03-21T12:32:13.506Z,18.53
2023-03-21T12:35:07.091Z,16.90
2023-03-21T12:38:13.227Z,19.13
2023-03-21T12:41:02.506Z,18.73
2023-03-21T12:43:50.048Z,17.90
2023-03-21T12:46:46.011Z,18.60
2023-03-21T12:49:38.684Z,18.10
2023-03-21T12:52:29.855Z,18.47
2023-03-21T12:55:32.347Z,18.30
2023-03-21T12:58:24.290Z,19.67
2023-03-21T13:01:12.821Z,20.83
2023-03-21T13:04:09.319Z,19.40
2023-03-21T13:06:58.812Z,20.50
2023-03-21T13:09:46.701Z,19.73
2023-03-21T13:12:39.959Z,20.80
2023-03-21T13:15:30.868Z,20.83
2023-03-21T13:18:33.370Z,20.23
2023-03-21T13:21:26.974Z,22.00
2023-03-21T13:24:33.032Z,20.20
2023-03-21T13:27:26.349Z,21.17
2023-03-21T13:30:21.903Z,21.80
2023-03-21T13:33:14.051Z,20.17
2023-03-21T13:36:07.252Z,17.27
2023-03-21T13:38:56.208Z,17.97
2023-03-21T13:41:47.152Z,18.63
2023-03-21T13:44:41.344Z,17.93
2023-03-21T13:47:49.467Z,18.17
2023-03-21T13:50:55.016Z,17.43
2023-03-21T13:53:46.307Z,16.83
2023-03-21T13:56:46.472Z,17.43
2023-03-21T13:59:41.532Z,19.30
2023-03-21T14:02:30.590Z,17.47
2023-03-21T14:05:21.236Z,15.30
2023-03-21T14:08:15.769Z,15.77
2023-03-21T14:11:11.027Z,15.63
2023-03-21T14:14:00.363Z,16.03
2023-03-21T14:19:35.407Z,14.97
2023-03-21T14:22:23.386Z,14.90
2023-03-21T14:25:15.285Z,12.93
2023-03-21T14:28:05.164Z,13.23
2023-03-21T14:30:54.734Z,14.27
2023-03-21T14:33:46.680Z,13.40
2023-03-21T14:36:38.958Z,12.87
2023-03-21T14:39:32.293Z,12.87
2023-03-21T14:42:20.831Z,12.27
2023-03-21T14:45:20.856Z,13.50
2023-03-21T14:48:13.760Z,13.30
2023-03-21T14:51:06.591Z,13.57
2023-03-21T14:53:53.957Z,12.20
2023-03-21T14:56:41.350Z,12.20
2023-03-21T14:59:32.058Z,12.23
2023-03-21T15:02:28.598Z,12.93
2023-03-21T15:05:27.920Z,14.20
2023-03-21T15:08:16.363Z,13.90
2023-03-21T15:11:07.991Z,15.00
2023-03-21T15:13:56.374Z,14.50
2023-03-21T15:16:43.819Z,14.90
2023-03-21T15:19:36.214Z,15.63
2023-03-21T15:22:39.422Z,14.77
2023-03-21T15:25:28.349Z,15.40
2023-03-21T15:28:15.958Z,12.87
2023-03-21T15:31:04.774Z,12.53
2023-03-21T15:33:53.401Z,14.47
2023-03-21T15:36:47.006Z,16.23
2023-03-21T15:39:36.292Z,16.87
2023-03-21T15:42:25.360Z,15.50
2023-03-21T15:45:21.806Z,13.63
2023-03-21T15:48:13.463Z,13.03
2023-03-21T15:51:04.953Z,13.63
2023-03-21T15:53:54.138Z,11.70
2023-03-21T15:56:45.834Z,14.83
2023-03-21T15:59:34.785Z,12.63
2023-03-21T16:02:23.716Z,13.00
2023-03-21T16:05:30.691Z,12.97
2023-03-21T16:08:19.938Z,13.80
2023-03-21T16:11:25.578Z,12.60
2023-03-21T16:14:13.257Z,13.90
2023-03-21T16:17:00.922Z,13.10
2023-03-21T16:19:48.272Z,13.57
2023-03-21T16:22:35.858Z,13.50
2023-03-21T16:25:23.316Z,13.00
2023-03-21T16:28:13.707Z,13.50
2023-03-21T16:31:01.857Z,12.83
2023-03-21T16:33:49.403Z,13.00
2023-03-21T16:36:38.543Z,13.23
2023-03-21T16:39:26.925Z,13.07
2023-03-21T16:42:14.321Z,13.67
2023-03-21T16:45:01.686Z,14.53
2023-03-21T16:47:49.450Z,15.87
2023-03-21T16:50:40.865Z,15.03
2023-03-21T16:53:28.523Z,15.17
2023-03-21T16:56:17.937Z,14.10
2023-03-21T16:59:05.919Z,14.50
2023-03-21T17:01:53.336Z,13.70
2023-03-21T17:04:40.766Z,13.23
2023-03-21T17:07:28.206Z,13.80
2023-03-21T17:10:23.733Z,15.10
2023-03-21T17:13:11.170Z,15.90
2023-03-21T17:15:58.524Z,14.50
2023-03-21T17:18:45.967Z,14.97
2023-03-21T17:21:33.352Z,14.03
2023-03-21T17:24:20.704Z,19.33
2023-03-21T17:27:08.728Z,15.07
2023-03-21T17:29:58.189Z,15.00
2023-03-21T17:32:45.806Z,13.47
2023-03-21T17:35:33.283Z,10.67
2023-03-21T17:38:22.017Z,11.77
2023-03-21T17:41:28.110Z,13.10
2023-03-21T17:44:16.158Z,11.73
2023-03-21T17:47:03.546Z,12.33
2023-03-21T17:49:51.030Z,13.27
2023-03-21T17:52:38.444Z,12.93
2023-03-21T17:55:26.101Z,11.97
2023-03-21T17:58:13.690Z,11.13
2023-03-21T18:01:01.100Z,11.53
2023-03-21T18:03:48.452Z,11.10
2023-03-21T18:06:37.172Z,11.57
2023-03-21T18:09:24.542Z,11.80
2023-03-21T18:12:11.920Z,11.10
2023-03-21T18:14:59.307Z,12.50
2023-03-21T18:17:46.700Z,11.00
2023-03-21T18:23:41.670Z,11.50
2023-03-21T18:26:31.110Z,16.67
2023-03-21T18:30:17.491Z,14.80
2023-03-21T18:32:27.231Z,11.73
2023-03-21T18:35:16.239Z,20.27
2023-03-21T18:38:03.581Z,12.67
2023-03-21T18:40:50.987Z,12.80
2023-03-21T18:44:01.435Z,11.20
2023-03-21T18:46:50.505Z,10.93
2023-03-21T18:52:45.503Z,12.93
2023-03-21T18:55:45.338Z,12.43
2023-03-21T18:58:33.509Z,12.60
2023-03-21T19:01:21.096Z,12.00
2023-03-21T19:04:21.313Z,11.33
2023-03-21T19:07:11.178Z,13.30
2023-03-21T19:10:16.502Z,12.70
2023-03-21T19:13:06.967Z,13.00
2023-03-21T19:15:54.429Z,13.63
2023-03-21T19:18:54.616Z,14.20
2023-03-21T19:21:44.095Z,13.50
2023-03-21T19:24:31.413Z,13.73
2023-03-21T19:27:18.739Z,12.70
2023-03-21T19:30:14.366Z,13.20
2023-03-21T19:33:02.916Z,14.23
2023-03-21T19:36:08.892Z,14.27
2023-03-21T19:38:58.373Z,14.27
2023-03-21T19:41:46.248Z,14.07
2023-03-21T19:44:33.717Z,15.83
2023-03-21T19:47:21.078Z,14.87
2023-03-21T19:50:47.835Z,15.90
2023-03-21T19:53:16.314Z,15.80
2023-03-21T19:56:07.571Z,15.13
2023-03-21T19:59:03.371Z,16.63
2023-03-21T20:01:56.375Z,15.43
2023-03-21T20:04:46.106Z,16.50
2023-03-21T20:07:33.492Z,16.67
2023-03-21T20:10:21.127Z,18.33
2023-03-21T20:13:08.518Z,16.13
2023-03-21T20:16:00.379Z,16.30
2023-03-21T20:18:52.380Z,17.80
2023-03-21T20:21:48.494Z,18.10
2023-03-21T20:24:42.993Z,18.20
2023-03-21T20:27:30.733Z,18.97
2023-03-21T20:30:19.316Z,18.90
2023-03-21T20:33:06.776Z,18.83
2023-03-21T20:39:06.779Z,21.57
2023-03-21T20:41:54.713Z,20.90
2023-03-21T20:44:57.304Z,20.73
2023-03-21T20:47:45.999Z,22.23
2023-03-21T20:50:39.092Z,21.67
2023-03-21T20:53:27.022Z,22.80
2023-03-21T20:56:20.789Z,22.83
2023-03-21T20:59:26.465Z,23.17
2023-03-21T21:02:18.557Z,24.87
2023-03-21T21:05:28.961Z,23.60
2023-03-21T21:08:16.327Z,24.73
2023-03-21T21:11:56.592Z,25.93
2023-03-21T21:14:11.501Z,25.40
2023-03-21T21:17:02.666Z,26.00
2023-03-21T21:19:55.716Z,25.67
2023-03-21T21:22:46.056Z,27.20
2023-03-21T21:25:43.050Z,25.63
2023-03-21T21:28:31.406Z,24.57
2023-03-21T21:31:19.917Z,25.67
2023-03-21T21:34:07.277Z,28.03
2023-03-21T21:36:55.100Z,27.70
2023-03-21T21:39:42.628Z,24.27
2023-03-21T21:42:29.957Z,25.97
2023-03-21T21:45:18.857Z,26.60
2023-03-21T21:48:06.811Z,26.83
2023-03-21T21:51:01.004Z,25.13
2023-03-21T21:53:49.938Z,25.03
2023-03-21T21:56:38.270Z,24.87
2023-03-21T21:59:26.066Z,24.30
2023-03-21T22:02:14.078Z,25.03
2023-03-21T22:05:01.826Z,25.87
2023-03-21T22:07:49.950Z,26.23
2023-03-21T22:10:37.653Z,23.50
2023-03-21T22:13:25.259Z,25.03
2023-03-21T22:16:12.857Z,24.23
2023-03-21T22:19:00.260Z,23.57
2023-03-21T22:21:47.729Z,25.23
2023-03-21T22:24:35.773Z,24.43
2023-03-21T22:27:23.862Z,23.90
2023-03-21T22:30:13.627Z,24.43
2023-03-21T22:33:09.386Z,23.70
2023-03-21T22:35:57.432Z,23.13
2023-03-21T22:38:44.852Z,23.23
2023-03-21T22:41:32.653Z,23.13
2023-03-21T22:44:20.437Z,22.37
2023-03-21T22:47:09.216Z,22.17
2023-03-21T22:49:56.587Z,22.60
2023-03-21T22:52:44.116Z,21.80
2023-03-21T22:55:31.542Z,21.97
2023-03-21T22:58:19.060Z,21.87
2023-03-21T23:01:06.931Z,22.77
2023-03-21T23:03:54.384Z,21.50
2023-03-21T23:06:42.340Z,22.03
2023-03-21T23:09:29.773Z,18.73
2023-03-21T23:12:17.147Z,20.17
2023-03-21T23:15:04.995Z,18.87
2023-03-21T23:17:52.326Z,18.80
2023-03-21T23:20:39.848Z,20.20
2023-03-21T23:23:27.356Z,20.03
2023-03-21T23:26:14.760Z,18.10
2023-03-21T23:29:02.230Z,18.97
2023-03-21T23:31:49.600Z,18.00
2023-03-21T23:34:36.975Z,19.67
2023-03-21T23:37:24.995Z,18.43
2023-03-21T23:40:12.651Z,18.90
2023-03-21T23:43:00.113Z,18.20
2023-03-21T23:45:47.749Z,17.93
2023-03-21T23:48:35.578Z,19.17
2023-03-21T23:51:22.904Z,18.63
2023-03-21T23:54:10.316Z,16.87
2023-03-21T23:56:57.917Z,18.27
2023-03-21T23:59:46.925Z,17.80
